Time;durP1;ratioP1;P1;durP2;ratioP2;P2;SDS_P1;SDS_P2;PMS_P1;PMS_P2;Temp;Humidity;BMP_temperature;BMP_pressure;BME280_temperature;BME280_humidity;BME280_pressure;Samples;Min_cycle;Max_cycle;Signal;HPM_P1;HPM_P2
2022/07/02 00:00:28;;;;;;;4.82;1.00;;;16.70;99.90;;;;;;5063512;28;20059;-86
2022/07/02 00:03:03;;;;;;;5.10;1.25;;;16.60;99.90;;;;;;5057363;28;20056;-87
2022/07/02 00:05:40;;;;;;;3.83;1.07;;;16.40;99.90;;;;;;5054783;28;20058;-87
2022/07/02 00:08:15;;;;;;;5.93;1.55;;;16.60;99.90;;;;;;5050848;28;20109;-86
2022/07/02 00:10:50;;;;;;;4.93;1.20;;;16.60;99.90;;;;;;5050436;28;20093;-87
2022/07/02 00:13:25;;;;;;;;;;;16.60;99.90;;;;;;5068747;28;20544;-86
2022/07/02 00:16:02;;;;;;;;;;;;;;;;;;;;;
2022/07/02 00:18:29;;;;;;;6.35;1.23;;;16.50;99.90;;;;;;5065405;28;20047;-87
2022/07/02 00:20:57;;;;;;;8.05;1.10;;;16.50;99.90;;;;;;5053681;28;20056;-86
2022/07/02 00:23:25;;;;;;;4.78;1.30;;;16.60;99.90;;;;;;5056306;28;20048;-87
2022/07/02 00:26:04;;;;;;;2.60;1.00;;;16.50;99.90;;;;;;5050265;28;20042;-88
2022/07/02 00:28:43;;;;;;;3.67;0.98;;;16.50;99.90;;;;;;5052074;28;20459;-87
2022/07/02 00:31:32;;;;;;;4.03;1.20;;;16.50;99.90;;;;;;5053923;28;20127;-87
2022/07/02 00:34:11;;;;;;;;;;;;;;;;;;;;;
2022/07/02 00:36:43;;;;;;;2.35;1.17;;;16.50;99.90;;;;;;5049968;28;20554;-87
2022/07/02 00:39:19;;;;;;;;;;;;;;;;;;;;;
2022/07/02 00:41:48;;;;;;;2.17;0.82;;;16.50;99.90;;;;;;5050184;28;20040;-87
2022/07/02 00:44:24;;;;;;;;;;;;;;;;;;;;;
2022/07/02 00:46:54;;;;;;;4.63;1.10;;;16.50;99.90;;;;;;5060919;28;20048;-87
2022/07/02 00:49:31;;;;;;;4.10;1.15;;;16.40;99.90;;;;;;5055041;28;20044;-86
2022/07/02 00:51:57;;;;;;;3.33;0.95;;;16.40;99.90;;;;;;5043740;28;20051;-87
2022/07/02 00:54:23;;;;;;;3.83;1.30;;;16.40;99.90;;;;;;5052546;28;20044;-87
2022/07/02 00:56:54;;;;;;;4.47;1.10;;;15.90;99.90;;;;;;5045785;28;20519;-86
2022/07/02 00:59:26;;;;;;;4.75;0.90;;;16.40;99.90;;;;;;5046970;28;20410;-87
2022/07/02 01:02:02;;;;;;;4.25;1.15;;;15.80;99.90;;;;;;5047435;28;20511;-87
2022/07/02 01:04:29;;;;;;;3.38;1.00;;;16.40;99.90;;;;;;5054602;28;20047;-87
2022/07/02 01:07:22;;;;;;;2.38;0.70;;;16.40;99.90;;;;;;5053709;28;20074;-87
2022/07/02 01:12:47;;;;;;;;;;;;;;;;;;;;;
2022/07/02 01:15:14;;;;;;;4.70;1.08;;;16.40;99.90;;;;;;5063569;28;20044;-86
2022/07/02 01:17:42;;;;;;;2.88;1.05;;;16.40;99.90;;;;;;5049634;28;20052;-87
2022/07/02 01:20:12;;;;;;;7.13;1.17;;;16.40;99.90;;;;;;5037038;28;20044;-86
2022/07/02 01:22:44;;;;;;;3.33;1.08;;;16.50;99.90;;;;;;5063688;28;20062;-88
2022/07/02 01:25:13;;;;;;;2.63;0.90;;;16.40;99.90;;;;;;5046455;28;20077;-87
2022/07/02 01:27:46;;;;;;;2.47;0.80;;;16.30;99.90;;;;;;5053231;28;20040;-87
2022/07/02 01:30:20;;;;;;;3.28;0.85;;;16.30;99.90;;;;;;5037956;28;20055;-87
2022/07/02 01:32:49;;;;;;;2.88;0.80;;;16.30;99.90;;;;;;5069065;28;20044;-87
2022/07/02 01:35:20;;;;;;;5.72;1.30;;;15.70;99.90;;;;;;5048855;28;20036;-87
2022/07/02 01:37:49;;;;;;;4.10;1.10;;;16.20;99.90;;;;;;5052298;28;20044;-86
2022/07/02 01:40:29;;;;;;;2.97;1.10;;;16.20;99.90;;;;;;5064143;28;20044;-87
2022/07/02 01:42:58;;;;;;;3.80;1.25;;;16.20;99.90;;;;;;5031359;28;20059;-87
2022/07/02 01:45:26;;;;;;;3.60;1.00;;;16.20;99.90;;;;;;5055627;28;20048;-87
2022/07/02 01:48:33;;;;;;;2.95;1.20;;;16.10;99.90;;;;;;5038790;28;20113;-87
2022/07/02 01:50:59;;;;;;;3.28;0.85;;;16.20;99.90;;;;;;5050690;28;20677;-88
2022/07/02 01:53:29;;;;;;;5.00;1.05;;;16.10;99.90;;;;;;5055299;28;20051;-87
2022/07/02 01:55:55;;;;;;;4.18;0.90;;;15.50;99.90;;;;;;5047729;28;20035;-87
2022/07/02 01:58:23;;;;;;;4.25;0.95;;;16.10;99.90;;;;;;5053046;28;20044;-87
2022/07/02 02:01:01;;;;;;;;;;;;;;;;;;;;;
2022/07/02 02:03:32;;;;;;;3.95;1.02;;;16.20;99.90;;;;;;5049867;28;20040;-86
2022/07/02 02:06:10;;;;;;;;;;;;;;;;;;;;;
2022/07/02 02:08:39;;;;;;;6.22;1.08;;;16.20;99.90;;;;;;5051943;28;20039;-87
2022/07/02 02:11:05;;;;;;;2.70;0.95;;;16.70;99.90;;;;;;5069572;28;20375;-86
2022/07/02 02:13:33;;;;;;;4.63;1.38;;;16.10;99.90;;;;;;5053231;28;20052;-87
2022/07/02 02:15:59;;;;;;;7.05;1.48;;;16.10;99.90;;;;;;5066680;28;20083;-86
2022/07/02 02:18:25;;;;;;;5.57;1.23;;;16.60;99.90;;;;;;5059140;28;20072;-86
2022/07/02 02:20:56;;;;;;;7.45;1.27;;;16.10;99.90;;;;;;5057456;28;20047;-86
2022/07/02 02:23:25;;;;;;;6.43;1.23;;;15.50;99.90;;;;;;5050624;28;20135;-86
2022/07/02 02:25:53;;;;;;;4.60;1.13;;;16.10;99.90;;;;;;5054681;28;20453;-87
2022/07/02 02:28:22;;;;;;;4.72;1.00;;;16.10;99.90;;;;;;5046412;28;20047;-86
2022/07/02 02:30:48;;;;;;;3.70;1.10;;;16.10;99.90;;;;;;5053848;28;20047;-85
2022/07/02 02:33:32;;;;;;;6.32;1.13;;;16.10;99.90;;;;;;5047680;28;20052;-87
2022/07/02 02:36:09;;;;;;;4.88;1.27;;;15.20;99.90;;;;;;5048546;28;20092;-87
2022/07/02 02:38:48;;;;;;;2.80;1.00;;;16.00;99.90;;;;;;5056222;28;20520;-87
2022/07/02 02:41:19;;;;;;;3.05;1.00;;;16.00;99.90;;;;;;5069354;28;20132;-86
2022/07/02 02:43:56;;;;;;;6.05;1.45;;;15.40;99.90;;;;;;5036389;28;20130;-86
2022/07/02 02:46:31;;;;;;;3.70;1.02;;;15.90;99.90;;;;;;5056348;28;20199;-87
2022/07/02 02:49:07;;;;;;;;;;;15.20;99.90;;;;;;5052370;28;20048;-86
2022/07/02 02:51:43;;;;;;;;;;;;;;;;;;;;;
2022/07/02 02:54:30;;;;;;;4.22;1.55;;;15.90;99.90;;;;;;5061452;28;20055;-88
2022/07/02 02:57:14;;;;;;;2.42;1.05;;;15.80;99.90;;;;;;5050260;28;20040;-86
2022/07/02 02:59:45;;;;;;;4.35;1.25;;;15.70;99.90;;;;;;5051386;28;20056;-87
2022/07/02 03:02:21;;;;;;;3.78;1.10;;;15.80;99.90;;;;;;5052103;28;20047;-88
2022/07/02 03:05:15;;;;;;;2.78;1.02;;;16.10;99.90;;;;;;5048759;28;20044;-87
2022/07/02 03:08:07;;;;;;;3.60;1.02;;;15.90;99.90;;;;;;5048780;28;20052;-86
2022/07/02 03:10:37;;;;;;;3.90;1.20;;;15.90;99.90;;;;;;5056349;28;20054;-87
2022/07/02 03:13:12;;;;;;;4.90;1.20;;;15.60;99.90;;;;;;5054129;28;20043;-87
2022/07/02 03:15:48;;;;;;;4.57;1.23;;;16.50;99.90;;;;;;5034014;28;20105;-86
2022/07/02 03:18:13;;;;;;;;;;;16.70;99.90;;;;;;5053021;28;20045;-87
2022/07/02 03:20:42;;;;;;;4.25;1.00;;;15.90;99.90;;;;;;5052237;28;19920;-87
2022/07/02 03:23:08;;;;;;;4.50;1.27;;;15.90;99.90;;;;;;5052612;28;20043;-87
2022/07/02 03:25:36;;;;;;;4.18;1.27;;;15.90;99.90;;;;;;5055583;28;20059;-86
2022/07/02 03:28:07;;;;;;;5.20;1.35;;;15.90;99.90;;;;;;5053215;28;20125;-87
2022/07/02 03:30:33;;;;;;;3.83;1.65;;;16.00;99.90;;;;;;5048877;28;20135;-87
2022/07/02 03:33:08;;;;;;;4.35;1.45;;;15.90;99.90;;;;;;5056907;28;20086;-87
2022/07/02 03:35:59;;;;;;;6.90;1.40;;;15.90;99.90;;;;;;5054662;28;20040;-88
2022/07/02 03:38:51;;;;;;;3.67;1.35;;;15.90;99.90;;;;;;5051706;28;20131;-87
2022/07/02 03:41:16;;;;;;;5.63;1.30;;;15.80;99.90;;;;;;5050747;28;20052;-88
2022/07/02 03:43:50;;;;;;;5.57;1.20;;;15.90;99.90;;;;;;5047458;28;20708;-89
2022/07/02 03:46:24;;;;;;;3.60;1.50;;;15.90;99.90;;;;;;5046313;28;20048;-88
2022/07/02 03:48:50;;;;;;;2.72;1.13;;;15.20;99.90;;;;;;5046957;28;20054;-87
2022/07/02 03:51:18;;;;;;;5.53;1.60;;;16.90;99.90;;;;;;5049183;28;20036;-88
2022/07/02 03:53:52;;;;;;;5.78;1.40;;;16.60;99.90;;;;;;5048073;28;20241;-87
2022/07/02 03:56:32;;;;;;;;;;;;;;;;;;;;;
2022/07/02 03:59:06;;;;;;;4.25;1.40;;;15.20;99.90;;;;;;5034426;28;20124;-87
2022/07/02 04:01:32;;;;;;;5.82;1.58;;;16.00;99.90;;;;;;5032174;28;20434;-88
2022/07/02 04:04:04;;;;;;;4.60;1.42;;;16.00;99.90;;;;;;5053098;28;20055;-87
2022/07/02 04:06:37;;;;;;;4.68;1.42;;;16.00;99.90;;;;;;5050191;28;20560;-87
2022/07/02 04:09:03;;;;;;;3.72;1.25;;;16.00;99.90;;;;;;5035896;28;20158;-87
2022/07/02 04:11:31;;;;;;;9.98;1.40;;;15.70;99.90;;;;;;5036023;28;20135;-87
2022/07/02 04:14:07;;;;;;;5.32;1.52;;;16.00;99.90;;;;;;5033769;28;20057;-88
2022/07/02 04:16:40;;;;;;;4.50;1.10;;;16.00;99.90;;;;;;5047458;28;20052;-86
2022/07/02 04:19:23;;;;;;;;;;;;;;;;;;;;;
2022/07/02 04:21:58;;;;;;;5.05;1.33;;;16.10;99.90;;;;;;5049726;28;20053;-87
2022/07/02 04:24:27;;;;;;;6.35;1.60;;;15.60;99.90;;;;;;5059415;28;20109;-86
2022/07/02 04:26:57;;;;;;;4.28;1.35;;;16.10;99.90;;;;;;5035978;28;20083;-87
2022/07/02 04:29:28;;;;;;;6.97;1.60;;;16.20;99.90;;;;;;5045477;28;20138;-88
2022/07/02 04:31:57;;;;;;;7.72;1.30;;;17.10;99.90;;;;;;5048945;28;20056;-86
2022/07/02 04:34:23;;;;;;;5.82;1.38;;;16.20;99.90;;;;;;5033684;28;20048;-87
2022/07/02 04:36:56;;;;;;;5.68;1.40;;;17.10;99.90;;;;;;5048495;28;20047;-88
2022/07/02 04:39:22;;;;;;;5.68;1.40;;;16.30;99.90;;;;;;5034287;28;20143;-84
2022/07/02 04:41:51;;;;;;;4.15;1.63;;;16.20;99.90;;;;;;5050128;28;20135;-86
2022/07/02 04:44:37;;;;;;;3.60;1.20;;;16.30;99.90;;;;;;5065988;28;20040;-87
2022/07/02 04:47:03;;;;;;;7.25;2.08;;;16.30;99.90;;;;;;5049808;28;20495;-87
2022/07/02 04:49:32;;;;;;;7.03;1.70;;;16.40;99.90;;;;;;5046061;28;20051;-86
2022/07/02 04:51:58;;;;;;;6.20;1.48;;;16.40;99.90;;;;;;5073795;28;20532;-87
2022/07/02 04:54:26;;;;;;;4.18;1.58;;;16.40;99.90;;;;;;5055863;28;20502;-87
2022/07/02 04:56:55;;;;;;;7.50;1.92;;;16.70;99.90;;;;;;5039911;28;20056;-87
2022/07/02 04:59:23;;;;;;;6.22;1.55;;;16.50;99.90;;;;;;5066346;28;20048;-88
2022/07/02 05:02:02;;;;;;;6.78;1.40;;;16.60;99.90;;;;;;5048729;28;20055;-86
2022/07/02 05:04:27;;;;;;;4.25;1.20;;;16.60;99.90;;;;;;5052783;28;20055;-85
2022/07/02 05:06:58;;;;;;;7.45;1.70;;;16.60;99.90;;;;;;5053329;28;20079;-86
2022/07/02 05:09:24;;;;;;;6.40;1.70;;;16.60;99.90;;;;;;5050565;28;20056;-84
2022/07/02 05:11:59;;;;;;;;;;;;;;;;;;;;;
2022/07/02 05:14:26;;;;;;;7.35;1.60;;;16.70;99.90;;;;;;5050056;28;20129;-85
2022/07/02 05:16:57;;;;;;;6.93;1.38;;;16.70;99.90;;;;;;5052673;28;20071;-84
2022/07/02 05:19:30;;;;;;;7.50;1.60;;;16.80;99.90;;;;;;5050074;28;20135;-86
2022/07/02 05:21:56;;;;;;;3.65;1.50;;;16.80;99.90;;;;;;5061411;28;20043;-84
2022/07/02 05:24:24;;;;;;;5.57;1.60;;;16.90;99.90;;;;;;5048271;28;20058;-86
2022/07/02 05:26:50;;;;;;;6.72;2.00;;;16.90;99.90;;;;;;5034804;28;20126;-85
2022/07/02 05:29:17;;;;;;;5.78;1.60;;;16.90;99.90;;;;;;5046005;28;20048;-82
2022/07/02 05:31:47;;;;;;;4.43;1.00;;;17.00;99.90;;;;;;5027435;28;20054;-85
2022/07/02 05:34:13;;;;;;;4.03;1.38;;;17.10;99.90;;;;;;5039512;28;20028;-83
2022/07/02 05:36:40;;;;;;;6.22;1.63;;;17.10;99.90;;;;;;5027096;28;20054;-87
2022/07/02 05:39:10;;;;;;;6.28;1.80;;;17.10;99.90;;;;;;5060421;28;20134;-86
2022/07/02 05:41:36;;;;;;;5.55;1.48;;;17.10;99.90;;;;;;5050502;28;20506;-83
2022/07/02 05:44:04;;;;;;;4.30;1.50;;;17.20;99.90;;;;;;5042512;28;20097;-85
2022/07/02 05:46:33;;;;;;;6.22;1.38;;;17.30;99.90;;;;;;5045588;28;20131;-85
2022/07/02 05:49:04;;;;;;;6.18;1.70;;;17.40;99.90;;;;;;5048852;28;20127;-87
2022/07/02 05:51:37;;;;;;;5.45;1.60;;;17.40;99.90;;;;;;5036491;28;20048;-86
2022/07/02 05:54:15;;;;;;;7.43;1.40;;;17.40;99.90;;;;;;5034173;28;20059;-87
2022/07/02 05:56:41;;;;;;;6.50;1.33;;;17.90;99.90;;;;;;5043911;28;20089;-88
2022/07/02 05:59:10;;;;;;;5.72;1.40;;;17.50;99.90;;;;;;5044196;28;20049;-87
2022/07/02 06:01:50;;;;;;;;;;;;;;;;;;;;;
2022/07/02 06:04:17;;;;;;;9.57;1.50;;;17.50;99.90;;;;;;5045052;28;20058;-87
2022/07/02 06:09:39;;;;;;;7.85;1.30;;;17.60;99.90;;;;;;5065749;28;20062;-88
2022/07/02 06:12:05;;;;;;;7.10;1.95;;;17.60;99.90;;;;;;5031785;28;20044;-87
2022/07/02 06:14:31;;;;;;;7.15;1.40;;;17.60;99.90;;;;;;5051299;28;20036;-85
2022/07/02 06:17:02;;;;;;;5.53;1.30;;;17.70;99.90;;;;;;5062445;28;20063;-86
2022/07/02 06:19:28;;;;;;;7.22;1.63;;;17.80;99.90;;;;;;5045038;28;20055;-86
2022/07/02 06:21:54;;;;;;;5.88;1.10;;;17.90;99.90;;;;;;5052349;28;20047;-85
2022/07/02 06:24:48;;;;;;;6.00;1.40;;;17.90;99.90;;;;;;5039824;28;20048;-88
2022/07/02 06:30:01;;;;;;;6.38;1.30;;;18.00;99.90;;;;;;5061275;28;20063;-85
2022/07/02 06:32:28;;;;;;;4.45;1.40;;;18.10;99.90;;;;;;5044294;28;20133;-86
2022/07/02 06:34:54;;;;;;;7.25;1.52;;;18.20;99.90;;;;;;5044574;28;20127;-86
2022/07/02 06:37:22;;;;;;;5.05;1.17;;;18.20;99.90;;;;;;5042547;28;20081;-87
2022/07/02 06:39:51;;;;;;;5.15;1.52;;;18.30;99.90;;;;;;5050960;28;20047;-86
2022/07/02 06:42:31;;;;;;;4.13;1.00;;;18.10;99.90;;;;;;5051604;28;20053;-87
2022/07/02 06:45:00;;;;;;;5.38;1.25;;;18.40;99.90;;;;;;5032050;28;20779;-86
2022/07/02 06:47:39;;;;;;;7.97;1.15;;;18.50;99.90;;;;;;5046423;28;20056;-88
2022/07/02 06:50:10;;;;;;;5.03;1.40;;;18.60;99.90;;;;;;5051748;28;20475;-87
2022/07/02 06:52:46;;;;;;;6.43;1.40;;;18.60;99.90;;;;;;5047534;28;20063;-85
2022/07/02 06:55:20;;;;;;;10.10;1.30;;;18.30;99.90;;;;;;5053972;28;20396;-88
2022/07/02 06:57:49;;;;;;;3.63;1.13;;;18.90;99.90;;;;;;5034616;28;20051;-86
2022/07/02 07:00:16;;;;;;;5.22;1.08;;;18.80;99.90;;;;;;5061668;28;20070;-86
2022/07/02 07:02:45;;;;;;;6.10;1.45;;;18.90;99.90;;;;;;5061691;28;20250;-87
2022/07/02 07:05:14;;;;;;;4.72;1.00;;;19.00;99.90;;;;;;5064063;28;20494;-87
2022/07/02 07:07:40;;;;;;;4.80;1.27;;;19.10;99.90;;;;;;5045934;28;20143;-87
2022/07/02 07:10:06;;;;;;;6.00;1.20;;;19.20;99.90;;;;;;5062327;28;20119;-84
2022/07/02 07:12:33;;;;;;;5.35;1.00;;;19.30;99.90;;;;;;5061803;28;20131;-86
2022/07/02 07:15:06;;;;;;;6.05;1.25;;;19.10;99.90;;;;;;5030692;28;20040;-89
2022/07/02 07:17:32;;;;;;;4.07;1.10;;;19.60;99.90;;;;;;5050763;28;20131;-86
2022/07/02 07:19:58;;;;;;;4.47;1.20;;;19.70;99.90;;;;;;5054148;28;20115;-88
2022/07/02 07:22:24;;;;;;;7.78;1.60;;;19.80;99.90;;;;;;5042818;28;20051;-87
2022/07/02 07:24:56;;;;;;;2.60;1.10;;;19.80;99.90;;;;;;5054006;28;20081;-88
2022/07/02 07:27:25;;;;;;;4.82;1.30;;;19.90;99.90;;;;;;5054507;28;20056;-88
2022/07/02 07:30:04;;;;;;;;;;;;;;;;;;;;;
2022/07/02 07:32:39;;;;;;;6.60;1.30;;;20.20;99.90;;;;;;5064748;28;20094;-86
2022/07/02 07:35:08;;;;;;;7.93;1.30;;;20.10;99.90;;;;;;5060892;28;20067;-87
2022/07/02 07:37:36;;;;;;;5.22;1.30;;;20.60;99.90;;;;;;5048596;28;20048;-87
2022/07/02 07:40:18;;;;;;;4.72;1.45;;;20.80;99.90;;;;;;5047711;28;21501;-87
2022/07/02 07:42:49;;;;;;;3.90;1.15;;;20.50;99.90;;;;;;5053143;28;22245;-87
2022/07/02 07:45:17;;;;;;;3.30;0.98;;;20.60;99.90;;;;;;5034882;28;20049;-86
2022/07/02 07:47:53;;;;;;;5.32;1.40;;;20.80;99.90;;;;;;5045937;28;20067;-87
2022/07/02 07:50:19;;;;;;;6.30;1.33;;;20.90;99.90;;;;;;5051462;28;20063;-86
2022/07/02 07:52:55;;;;;;;10.15;1.42;;;21.10;99.90;;;;;;5039091;28;20052;-86
2022/07/02 07:55:39;;;;;;;;;;;;;;;;;;;;;
2022/07/02 07:58:11;;;;;;;5.03;1.17;;;21.20;99.90;;;;;;5062823;28;20578;-87
2022/07/02 08:00:37;;;;;;;3.22;1.00;;;21.30;99.90;;;;;;5037386;28;20093;-88
2022/07/02 08:03:08;;;;;;;5.07;1.30;;;21.30;99.90;;;;;;5053657;28;20044;-88
2022/07/02 08:05:36;;;;;;;5.43;1.33;;;21.40;99.90;;;;;;5038332;28;20080;-88
2022/07/02 08:08:07;;;;;;;5.93;1.15;;;21.40;99.90;;;;;;5057560;28;20060;-87
2022/07/02 08:10:36;;;;;;;6.72;1.30;;;21.50;99.90;;;;;;5054624;28;20059;-88
2022/07/02 08:13:11;;;;;;;3.95;1.30;;;21.60;99.90;;;;;;5040830;28;20041;-88
2022/07/02 08:15:50;;;;;;;;;;;;;;;;;;;;;
2022/07/02 08:18:16;;;;;;;4.15;1.23;;;21.70;99.90;;;;;;5051310;28;20040;-88
2022/07/02 08:20:47;;;;;;;4.53;1.90;;;21.90;99.90;;;;;;5047994;28;20041;-88
2022/07/02 08:23:18;;;;;;;3.97;0.95;;;21.90;99.90;;;;;;5049904;28;20062;-88
2022/07/02 08:26:06;;;;;;;3.13;1.10;;;21.90;99.90;;;;;;5050135;28;20036;-88
2022/07/02 08:28:47;;;;;;;4.68;1.15;;;22.10;99.90;;;;;;5047949;28;20044;-87
2022/07/02 08:31:13;;;;;;;4.88;1.10;;;22.20;99.90;;;;;;5054829;28;20105;-88
2022/07/02 08:33:48;;;;;;;4.35;1.23;;;22.20;99.90;;;;;;5052037;28;20040;-90
2022/07/02 08:36:16;;;;;;;3.20;1.20;;;22.30;99.90;;;;;;5065643;28;20253;-88
2022/07/02 08:38:45;;;;;;;4.20;1.33;;;22.40;99.90;;;;;;5045076;28;20048;-89
2022/07/02 08:41:36;;;;;;;3.03;1.10;;;22.50;99.90;;;;;;5046969;28;20047;-88
2022/07/02 08:44:22;;;;;;;2.83;1.00;;;22.60;99.90;;;;;;5061037;28;20052;-90
2022/07/02 08:46:50;;;;;;;5.07;1.23;;;22.80;99.90;;;;;;5045607;28;20041;-86
2022/07/02 08:49:22;;;;;;;7.45;1.13;;;23.10;99.90;;;;;;5056166;28;20467;-88
2022/07/02 08:52:07;;;;;;;1.70;0.68;;;23.20;99.90;;;;;;5064511;28;20051;-87
2022/07/02 08:54:40;;;;;;;3.20;1.00;;;23.30;99.90;;;;;;5039442;28;20762;-88
2022/07/02 08:57:10;;;;;;;5.95;1.50;;;23.60;99.90;;;;;;5032813;28;20059;-87
2022/07/02 08:59:41;;;;;;;1.98;0.80;;;23.80;99.90;;;;;;5049341;28;20143;-89
2022/07/02 09:02:20;;;;;;;4.03;0.90;;;24.20;99.90;;;;;;5037648;28;20394;-89
2022/07/02 09:04:49;;;;;;;3.22;0.82;;;24.50;99.90;;;;;;5049108;28;20046;-87
2022/07/02 09:07:18;;;;;;;3.83;0.90;;;24.80;99.90;;;;;;5052746;28;20048;-88
2022/07/02 09:09:45;;;;;;;3.13;0.80;;;25.10;99.90;;;;;;5044298;28;20048;-87
2022/07/02 09:12:23;;;;;;;;;;;;;;;;;;;;;
2022/07/02 09:14:51;;;;;;;2.15;0.80;;;25.10;97.80;;;;;;5065038;28;20056;-87
2022/07/02 09:17:17;;;;;;;4.38;0.90;;;25.20;97.90;;;;;;5046927;28;20043;-86
2022/07/02 09:19:48;;;;;;;3.75;0.63;;;25.30;98.20;;;;;;5052390;28;20406;-87
2022/07/02 09:22:14;;;;;;;2.85;0.82;;;25.50;97.30;;;;;;5066820;28;20032;-87
2022/07/02 09:24:42;;;;;;;39.88;34.33;;;25.30;95.90;;;;;;5057859;28;20372;-88
2022/07/02 09:27:29;;;;;;;8.63;4.07;;;25.30;95.70;;;;;;5063906;28;20041;-88
2022/07/02 09:29:55;;;;;;;2.50;1.13;;;25.30;94.50;;;;;;5046859;28;20131;-85
2022/07/02 09:32:21;;;;;;;2.55;0.73;;;25.50;95.20;;;;;;5032818;28;20127;-84
2022/07/02 09:34:53;;;;;;;2.70;0.60;;;25.60;94.10;;;;;;5042792;28;20040;-86
2022/07/02 09:37:25;;;;;;;2.33;0.43;;;25.70;93.30;;;;;;5046849;28;20402;-87
2022/07/02 09:39:55;;;;;;;2.58;0.90;;;25.80;92.20;;;;;;5051173;28;20048;-87
2022/07/02 09:42:30;;;;;;;2.33;0.63;;;25.90;92.10;;;;;;5062200;28;20055;-86
2022/07/02 09:44:57;;;;;;;1.70;0.50;;;26.00;90.90;;;;;;5043465;28;20071;-86
2022/07/02 09:47:31;;;;;;;1.52;0.47;;;26.00;90.50;;;;;;5043830;28;20052;-86
2022/07/02 09:50:00;;;;;;;2.05;0.50;;;26.10;86.30;;;;;;5044669;28;20056;-84
2022/07/02 09:52:26;;;;;;;1.75;0.60;;;26.10;88.20;;;;;;5050551;28;20044;-84
2022/07/02 09:54:52;;;;;;;2.30;0.57;;;26.20;87.40;;;;;;5046717;28;20046;-84
2022/07/02 09:57:18;;;;;;;2.00;0.80;;;26.10;85.30;;;;;;5027444;28;20047;-84
2022/07/02 09:59:43;;;;;;;3.55;0.70;;;26.10;86.30;;;;;;5060335;28;20105;-84
2022/07/02 10:02:35;;;;;;;2.00;0.75;;;26.20;87.50;;;;;;5050212;28;20114;-84
2022/07/02 10:05:04;;;;;;;2.50;0.50;;;26.50;83.00;;;;;;5058960;28;20052;-85
2022/07/02 10:07:31;;;;;;;2.40;0.60;;;26.70;85.20;;;;;;5044644;28;20057;-84
2022/07/02 10:10:04;;;;;;;3.83;0.70;;;26.80;84.30;;;;;;5033049;28;20138;-85
2022/07/02 10:12:30;;;;;;;1.75;0.60;;;26.30;81.00;;;;;;5049127;28;20135;-85
2022/07/02 10:14:57;;;;;;;2.28;0.70;;;26.30;81.50;;;;;;5058991;28;20083;-85
2022/07/02 10:17:24;;;;;;;2.72;0.80;;;26.20;81.80;;;;;;5049024;28;20052;-84
2022/07/02 10:19:52;;;;;;;3.28;0.60;;;26.30;81.40;;;;;;5042775;28;20059;-85
2022/07/02 10:22:23;;;;;;;2.30;0.77;;;26.30;80.10;;;;;;5044062;28;20059;-83
2022/07/02 10:24:50;;;;;;;1.02;0.60;;;26.30;80.50;;;;;;5046420;28;20040;-82
2022/07/02 10:27:18;;;;;;;3.40;0.85;;;26.40;81.40;;;;;;5032089;28;20048;-83
2022/07/02 10:29:44;;;;;;;3.13;0.73;;;26.60;81.20;;;;;;5061736;28;20052;-83
2022/07/02 10:32:25;;;;;;;1.08;0.50;;;26.70;80.30;;;;;;5047630;28;20067;-84
2022/07/02 10:35:15;;;;;;;2.33;0.70;;;26.90;79.10;;;;;;5040782;28;20117;-85
2022/07/02 10:38:15;;;;;;;;;;;;;;;;;;;;;
2022/07/02 10:40:56;;;;;;;1.58;0.40;;;25.80;79.40;;;;;;5059239;28;20044;-85
2022/07/02 10:43:32;;;;;;;3.40;0.90;;;25.80;79.60;;;;;;5044385;28;20542;-86
2022/07/02 10:46:08;;;;;;;2.35;0.70;;;25.60;82.30;;;;;;5063587;28;20048;-87
2022/07/02 10:49:09;;;;;;;1.40;0.50;;;25.80;84.30;;;;;;5046879;28;20055;-87
2022/07/02 10:51:35;;;;;;;2.80;0.68;;;25.90;83.40;;;;;;5049658;28;20080;-86
2022/07/02 10:54:07;;;;;;;2.13;0.55;;;25.90;83.30;;;;;;5056860;28;20059;-87
2022/07/02 10:56:55;;;;;;;2.33;0.60;;;25.90;83.30;;;;;;5051182;28;20127;-86
2022/07/02 10:59:38;;;;;;;3.03;0.68;;;25.60;82.90;;;;;;5047450;28;20052;-87
2022/07/02 11:02:32;;;;;;;1.35;0.50;;;25.50;82.30;;;;;;5048510;28;20076;-86
2022/07/02 11:05:19;;;;;;;1.30;0.52;;;25.40;83.70;;;;;;5033556;28;20450;-87
2022/07/02 11:08:00;;;;;;;2.00;0.60;;;25.30;81.60;;;;;;5038640;28;20067;-87
2022/07/02 11:10:30;;;;;;;1.33;0.40;;;24.90;82.70;;;;;;5032081;28;20135;-86
2022/07/02 11:13:08;;;;;;;2.72;0.60;;;24.80;84.10;;;;;;5036801;28;20060;-87
2022/07/02 11:15:37;;;;;;;2.60;0.70;;;24.60;83.10;;;;;;5053731;28;20115;-86
2022/07/02 11:18:11;;;;;;;1.38;0.55;;;24.20;84.60;;;;;;5032549;28;20048;-86
2022/07/02 11:20:44;;;;;;;2.83;0.80;;;24.60;84.80;;;;;;5050276;28;20032;-87
2022/07/02 11:23:16;;;;;;;3.20;0.73;;;24.90;85.10;;;;;;5048851;28;20044;-86
2022/07/02 11:25:45;;;;;;;1.75;0.60;;;24.90;86.10;;;;;;5054021;28;20048;-86
2022/07/02 11:28:17;;;;;;;1.85;0.70;;;24.90;85.30;;;;;;5048766;28;20048;-86
2022/07/02 11:30:43;;;;;;;1.50;0.55;;;25.00;84.30;;;;;;5047350;28;20083;-86
2022/07/02 11:33:19;;;;;;;2.00;0.65;;;25.10;84.80;;;;;;5063298;28;20079;-86
2022/07/02 11:35:53;;;;;;;1.60;0.60;;;25.20;83.60;;;;;;5029250;28;20474;-86
2022/07/02 11:38:22;;;;;;;2.45;0.60;;;25.20;85.30;;;;;;5054418;28;20063;-86
2022/07/02 11:40:50;;;;;;;2.95;0.82;;;25.00;87.80;;;;;;5047329;28;20048;-86
2022/07/02 11:43:20;;;;;;;2.33;0.65;;;24.60;87.90;;;;;;5038697;28;20049;-86
2022/07/02 11:45:48;;;;;;;0.98;0.50;;;24.70;88.30;;;;;;5054038;28;20116;-87
2022/07/02 11:48:27;;;;;;;1.45;0.50;;;24.60;89.10;;;;;;5047169;28;20070;-86
2022/07/02 11:51:00;;;;;;;4.35;0.70;;;24.50;90.30;;;;;;5055680;28;20048;-86
2022/07/02 11:53:27;;;;;;;1.23;0.73;;;24.50;91.90;;;;;;5054548;28;20836;-86
2022/07/02 11:56:13;;;;;;;;;;;;;;;;;;;;;
2022/07/02 11:58:46;;;;;;;3.30;0.88;;;24.20;93.20;;;;;;5064309;28;20073;-86
2022/07/02 12:01:23;;;;;;;1.45;0.70;;;24.00;93.70;;;;;;5060207;28;20043;-86
2022/07/02 12:03:51;;;;;;;3.05;0.95;;;23.90;94.40;;;;;;5046928;28;20048;-86
2022/07/02 12:06:20;;;;;;;3.75;0.90;;;23.70;95.10;;;;;;5050073;28;20518;-86
2022/07/02 12:08:50;;;;;;;3.80;0.90;;;23.50;95.50;;;;;;5045974;28;20040;-86
2022/07/02 12:11:18;;;;;;;1.92;0.82;;;23.40;96.00;;;;;;5046052;28;20048;-87
2022/07/02 12:13:48;;;;;;;3.50;0.90;;;23.20;96.60;;;;;;5045955;28;20044;-85
2022/07/02 12:16:18;;;;;;;2.83;0.80;;;23.10;97.00;;;;;;5066281;28;20090;-86
2022/07/02 12:19:02;;;;;;;2.88;0.70;;;23.00;97.20;;;;;;5050234;28;20044;-86
2022/07/02 12:21:41;;;;;;;2.92;0.68;;;22.60;97.40;;;;;;5047852;28;20051;-86
2022/07/02 12:24:22;;;;;;;3.42;0.80;;;22.70;97.70;;;;;;5045333;28;20047;-86
2022/07/02 12:26:49;;;;;;;2.58;0.80;;;22.70;98.20;;;;;;5062820;28;20051;-86
2022/07/02 12:32:08;;;;;;;2.88;1.02;;;23.50;98.30;;;;;;5063905;28;20076;-86
2022/07/02 12:34:42;;;;;;;3.63;0.90;;;23.30;98.10;;;;;;5055577;28;20067;-87
2022/07/02 12:37:36;;;;;;;2.67;0.85;;;23.70;98.10;;;;;;5054673;28;20040;-86
2022/07/02 12:40:09;;;;;;;2.50;0.70;;;24.20;97.60;;;;;;5043750;28;20079;-86
2022/07/02 12:42:56;;;;;;;2.28;0.73;;;24.40;97.10;;;;;;5054713;28;20040;-86
2022/07/02 12:45:34;;;;;;;3.25;0.80;;;24.50;96.30;;;;;;5046111;28;20071;-87
2022/07/02 12:48:08;;;;;;;3.22;0.95;;;24.50;96.20;;;;;;5045243;28;20084;-86
2022/07/02 12:50:42;;;;;;;4.00;1.05;;;24.60;95.90;;;;;;5068714;28;20032;-87
2022/07/02 12:53:16;;;;;;;3.40;0.68;;;24.50;95.70;;;;;;5038980;28;20753;-86
2022/07/02 12:56:04;;;;;;;;;;;;;;;;;;;;;
2022/07/02 12:58:37;;;;;;;2.90;0.73;;;24.00;95.60;;;;;;5072939;28;20044;-86
2022/07/02 13:01:06;;;;;;;2.20;0.75;;;24.40;95.40;;;;;;5044998;28;20075;-86
2022/07/02 13:03:39;;;;;;;3.50;0.82;;;24.70;95.30;;;;;;5048186;28;20052;-87
2022/07/02 13:06:10;;;;;;;3.83;0.90;;;24.90;94.40;;;;;;5048075;28;20059;-86
2022/07/02 13:08:36;;;;;;;2.30;0.80;;;25.10;94.10;;;;;;5045069;28;20048;-86
2022/07/02 13:11:13;;;;;;;4.35;0.85;;;25.10;94.00;;;;;;5043605;28;20040;-87
2022/07/02 13:13:49;;;;;;;2.45;0.85;;;25.00;94.20;;;;;;5030931;28;20040;-86
2022/07/02 13:16:15;;;;;;;1.88;0.60;;;24.60;94.50;;;;;;5054411;28;20041;-86
2022/07/02 13:18:49;;;;;;;3.22;0.70;;;24.30;94.60;;;;;;5054209;28;20082;-86
2022/07/02 13:21:15;;;;;;;2.25;0.60;;;24.20;94.80;;;;;;5046614;28;20796;-86
2022/07/02 13:23:40;;;;;;;2.95;0.68;;;24.40;94.90;;;;;;5051275;28;20050;-86
2022/07/02 13:26:14;;;;;;;1.95;0.70;;;24.80;94.80;;;;;;5048317;28;20071;-86
2022/07/02 13:28:50;;;;;;;1.98;0.68;;;25.60;94.30;;;;;;5047356;28;20048;-86
2022/07/02 13:31:21;;;;;;;1.83;0.60;;;25.20;93.50;;;;;;5054357;28;20299;-86
2022/07/02 13:33:57;;;;;;;3.78;1.10;;;26.50;93.40;;;;;;5046787;28;20809;-86
2022/07/02 13:36:26;;;;;;;3.22;0.80;;;25.70;92.40;;;;;;5052955;28;20051;-86
2022/07/02 13:39:02;;;;;;;2.97;0.80;;;26.10;92.50;;;;;;5013720;28;20098;-86
2022/07/02 13:41:36;;;;;;;3.83;0.80;;;25.30;91.60;;;;;;5053213;28;20102;-86
2022/07/02 13:44:07;;;;;;;2.55;0.60;;;25.00;91.40;;;;;;5029092;28;20036;-86
2022/07/02 13:46:41;;;;;;;2.20;0.43;;;24.60;92.20;;;;;;5046022;28;20044;-86
2022/07/02 13:49:16;;;;;;;1.50;0.65;;;24.90;92.30;;;;;;5045177;28;20048;-86